Time;durP1;ratioP1;P1;durP2;ratioP2;P2;SDS_P1;SDS_P2;PMS_P1;PMS_P2;Temp;Humidity;BMP_temperature;BMP_pressure;BME280_temperature;BME280_humidity;BME280_pressure;Samples;Min_cycle;Max_cycle;Signal;HPM_P1;HPM_P2
2022/08/04 00:02:26;;;;;;;10.07;5.43;;;;;;;20.11;71.70;101407.34;10606349;28;20044;-71
2022/08/04 00:07:41;;;;;;;5.95;4.65;;;;;;;20.11;71.97;101407.34;10565973;28;20098;-72
2022/08/04 00:12:50;;;;;;;8.00;5.53;;;;;;;20.13;71.07;101405.91;10590331;28;20052;-71
2022/08/04 00:17:56;;;;;;;9.25;5.35;;;;;;;20.12;71.63;101415.38;10608407;28;20508;-71
2022/08/04 00:23:00;;;;;;;6.82;4.97;;;;;;;20.05;71.41;101408.66;10564824;28;20056;-72
2022/08/04 00:28:03;;;;;;;12.90;4.88;;;;;;;20.02;72.22;101404.56;10571010;28;20509;-72
2022/08/04 00:33:05;;;;;;;7.00;4.78;;;;;;;19.96;72.00;101405.88;10606949;28;20031;-72
2022/08/04 00:38:09;;;;;;;6.97;4.40;;;;;;;;;;10606821;28;20040;-71
2022/08/04 00:43:39;;;;;;;7.07;4.65;;;;;;;19.97;71.88;101399.16;10566007;28;20414;-71
2022/08/04 00:48:48;;;;;;;5.90;4.30;;;;;;;19.96;72.17;101397.53;10596260;28;20039;-72
2022/08/04 00:54:09;;;;;;;7.50;4.47;;;;;;;19.97;72.07;101399.16;10598944;28;20036;-71
2022/08/04 00:59:36;;;;;;;7.05;4.65;;;;;;;19.96;72.18;101400.31;10587385;28;20040;-71
2022/08/04 01:04:49;;;;;;;14.35;5.45;;;;;;;19.92;72.28;101399.31;10603529;28;20495;-71
2022/08/04 01:10:02;;;;;;;10.77;5.22;;;;;;;19.87;72.48;101396.69;10594708;28;20039;-71
2022/08/04 01:15:06;;;;;;;6.82;5.07;;;;;;;19.84;72.60;101392.59;10577583;28;20040;-71
2022/08/04 01:20:10;;;;;;;6.45;4.88;;;;;;;19.86;72.87;101395.06;10580218;28;20032;-71
2022/08/04 01:25:50;;;;;;;9.65;5.75;;;;;;;19.80;72.64;101399.97;10609231;28;20055;-71
2022/08/04 01:30:56;;;;;;;9.50;5.60;;;;;;;19.83;73.13;101399.31;10601808;28;20063;-71
2022/08/04 01:36:03;;;;;;;9.27;4.70;;;;;;;19.80;72.80;101397.19;10582169;28;20044;-70
2022/08/04 01:41:08;;;;;;;8.57;5.05;;;;;;;19.85;73.05;101387.84;10612483;28;20550;-70
2022/08/04 01:46:13;;;;;;;7.70;4.85;;;;;;;19.79;73.01;101394.72;10590241;28;20054;-70
2022/08/04 01:51:17;;;;;;;8.52;5.20;;;;;;;19.77;73.32;101386.66;10615768;27;20051;-70
2022/08/04 01:56:20;;;;;;;7.32;5.78;;;;;;;19.70;73.25;101393.88;10597394;28;20070;-71
2022/08/04 02:01:22;;;;;;;9.82;4.97;;;;;;;19.65;73.85;101388.47;10587123;28;20056;-70
2022/08/04 02:06:37;;;;;;;8.38;4.97;;;;;;;19.66;73.46;101395.66;10596038;28;20051;-70
2022/08/04 02:11:40;;;;;;;10.05;5.80;;;;;;;19.65;73.96;101402.38;10598216;28;20035;-70
2022/08/04 02:16:44;;;;;;;8.68;5.18;;;;;;;19.74;73.50;101397.63;10588755;28;20556;-70
2022/08/04 02:21:54;;;;;;;10.15;5.97;;;;;;;19.81;73.79;101404.38;10591894;28;20055;-70
2022/08/04 02:26:57;;;;;;;9.63;5.43;;;;;;;19.93;73.29;101395.38;10567140;28;20055;-70
2022/08/04 02:32:06;;;;;;;10.10;5.55;;;;;;;20.10;73.21;101400.13;10571246;28;20694;-71
2022/08/04 02:37:08;;;;;;;10.85;6.15;;;;;;;20.28;72.54;101400.97;10599806;28;20052;-70
2022/08/04 02:42:11;;;;;;;7.82;4.93;;;;;;;20.45;72.29;101401.00;10589096;28;20040;-70
2022/08/04 02:47:20;;;;;;;7.28;5.20;;;;;;;20.44;72.03;101399.34;10607370;28;20085;-70
2022/08/04 02:52:24;;;;;;;8.95;5.13;;;;;;;20.57;71.37;101397.53;10579455;28;20051;-70
2022/08/04 02:57:29;;;;;;;9.63;5.07;;;;;;;20.83;70.92;101401.13;10610039;28;20047;-70
2022/08/04 03:02:59;;;;;;;8.15;5.10;;;;;;;21.04;69.86;101399.25;10607962;28;20062;-70
2022/08/04 03:08:28;;;;;;;10.00;6.05;;;;;;;20.94;69.94;101391.22;10594817;28;20032;-70
2022/08/04 03:14:07;;;;;;;8.32;5.53;;;;;;;21.08;69.27;101400.22;10598506;28;20040;-70
2022/08/04 03:19:36;;;;;;;10.45;5.80;;;;;;;21.22;68.99;101400.00;10579130;28;20063;-70
2022/08/04 03:25:03;;;;;;;10.57;6.30;;;;;;;21.35;68.62;101398.19;10578966;28;20036;-70
2022/08/04 03:30:05;;;;;;;;;;;;;;;21.65;68.10;101399.78;10601355;28;20055;-70
2022/08/04 03:35:36;;;;;;;10.95;5.45;;;;;;;22.05;66.84;101395.81;10591977;28;19926;-70
2022/08/04 03:41:01;;;;;;;12.20;6.60;;;;;;;22.56;65.67;101400.09;10590653;28;20397;-70
2022/08/04 03:46:43;;;;;;;8.02;5.25;;;;;;;22.82;64.06;101391.50;10586474;28;20457;-70
2022/08/04 03:58:15;;;;;;;13.20;6.43;;;;;;;23.61;61.41;101395.81;10600050;28;20039;-70
2022/08/04 04:03:42;;;;;;;10.80;6.53;;;;;;;24.05;60.48;101398.75;10595363;28;20501;-70
2022/08/04 04:09:06;;;;;;;11.27;5.90;;;;;;;24.37;60.22;101399.75;10609551;28;20040;-70
2022/08/04 04:14:25;;;;;;;10.02;5.57;;;;;;;24.54;58.98;101393.03;10608968;28;20039;-70
2022/08/04 04:19:46;;;;;;;16.58;7.15;;;;;;;24.67;59.35;101396.59;10579933;28;20070;-70
2022/08/04 04:25:09;;;;;;;7.97;5.63;;;;;;;24.92;58.44;101404.50;10592524;28;20044;-70
2022/08/04 04:30:24;;;;;;;7.53;5.38;;;;;;;25.40;57.10;101402.56;10582176;28;20078;-70
2022/08/04 04:35:54;;;;;;;8.57;4.85;;;;;;;25.87;54.84;101409.34;10580510;28;20050;-71
2022/08/04 04:41:15;;;;;;;8.18;4.65;;;;;;;26.02;54.34;101406.47;10597816;28;20046;-70
2022/08/04 04:46:45;;;;;;;10.57;4.80;;;;;;;26.50;53.46;101420.38;10596412;28;20038;-70
2022/08/04 04:51:50;;;;;;;7.13;4.10;;;;;;;26.92;52.80;101426.03;10587962;28;20421;-70
2022/08/04 04:57:08;;;;;;;5.80;3.85;;;;;;;27.21;51.35;101422.56;10598144;28;20044;-70
2022/08/04 05:02:25;;;;;;;8.00;3.90;;;;;;;27.45;51.35;101426.22;10611465;28;20044;-70
2022/08/04 05:08:05;;;;;;;7.70;4.13;;;;;;;27.85;49.63;101426.47;10615881;28;20052;-70
2022/08/04 05:13:41;;;;;;;5.35;3.83;;;;;;;28.11;49.44;101430.47;10598743;28;20043;-71
2022/08/04 05:18:47;;;;;;;4.23;3.40;;;;;;;28.42;48.77;101432.13;10595191;28;20067;-71
2022/08/04 05:23:55;;;;;;;6.50;3.42;;;;;;;28.71;47.83;101436.94;10555814;28;20048;-71
2022/08/04 05:29:00;;;;;;;3.63;2.63;;;;;;;28.99;46.78;101438.47;10582957;28;20054;-71
2022/08/04 05:34:06;;;;;;;4.18;2.97;;;;;;;29.26;46.26;101439.13;10595198;28;20055;-71
2022/08/04 05:39:14;;;;;;;4.47;3.23;;;;;;;29.64;44.90;101438.69;10599514;28;20413;-71
2022/08/04 05:44:19;;;;;;;4.00;2.45;;;;;;;30.02;43.64;101447.81;10595874;28;20043;-71
2022/08/04 05:49:22;;;;;;;3.42;2.60;;;;;;;30.32;42.22;101447.63;10599735;28;20032;-71
2022/08/04 05:54:25;;;;;;;5.65;2.35;;;;;;;30.69;41.15;101457.94;10584764;28;20039;-71
2022/08/04 05:59:28;;;;;;;2.30;2.10;;;;;;;30.97;40.59;101451.53;10589294;28;20039;-71
2022/08/04 06:04:34;;;;;;;3.30;2.15;;;;;;;31.07;39.08;101445.09;10573514;28;20056;-71
2022/08/04 06:09:36;;;;;;;4.40;2.17;;;;;;;31.24;37.95;101455.69;10603719;28;20036;-71
2022/08/04 06:14:41;;;;;;;4.15;2.00;;;;;;;31.44;36.96;101453.28;10562168;28;20044;-71
2022/08/04 06:19:44;;;;;;;3.42;1.90;;;;;;;31.74;35.45;101450.84;10593999;28;20039;-71
2022/08/04 06:24:47;;;;;;;3.95;1.65;;;;;;;31.90;35.02;101455.28;10560924;28;20054;-71
2022/08/04 06:29:50;;;;;;;4.30;1.90;;;;;;;32.17;33.69;101456.44;10593794;28;20044;-71
2022/08/04 06:35:03;;;;;;;4.57;1.58;;;;;;;32.37;33.01;101459.66;10610905;28;20047;-71
2022/08/04 06:40:07;;;;;;;5.75;1.95;;;;;;;32.55;31.71;101449.03;10611113;28;20051;-71
2022/08/04 06:45:10;;;;;;;3.47;1.80;;;;;;;32.73;31.19;101462.34;10573191;28;20048;-71
2022/08/04 06:50:13;;;;;;;1.90;1.60;;;;;;;32.78;31.24;101467.59;10585258;28;20047;-71
2022/08/04 06:55:15;;;;;;;3.47;1.58;;;;;;;32.89;30.78;101474.06;10573532;28;20418;-71
2022/08/04 07:00:17;;;;;;;2.25;1.55;;;;;;;32.82;32.23;101468.44;10592996;28;20524;-71
2022/08/04 07:05:20;;;;;;;4.25;2.00;;;;;;;33.02;31.90;101471.56;10591800;28;20051;-70
2022/08/04 07:10:23;;;;;;;2.25;1.50;;;;;;;33.19;31.67;101465.75;10600945;28;20028;-73
2022/08/04 07:15:26;;;;;;;4.43;1.60;;;;;;;33.41;31.28;101468.47;10567483;28;20051;-71
2022/08/04 07:20:29;;;;;;;3.38;1.63;;;;;;;33.60;31.55;101476.44;10600137;28;20047;-71
2022/08/04 07:25:33;;;;;;;2.33;1.73;;;;;;;33.62;31.31;101476.03;10589352;28;20051;-71
2022/08/04 07:30:35;;;;;;;17.58;3.90;;;;;;;33.53;31.52;101468.78;10584351;28;20043;-71
2022/08/04 07:35:38;;;;;;;3.15;1.73;;;;;;;33.56;31.72;101481.38;10560127;28;20443;-72
2022/08/04 07:40:40;;;;;;;5.13;1.95;;;;;;;33.70;31.99;101478.41;10603052;28;20054;-70
2022/08/04 07:45:43;;;;;;;2.40;1.65;;;;;;;33.91;31.97;101482.31;10596491;28;20055;-70
2022/08/04 07:50:45;;;;;;;3.85;1.70;;;;;;;33.98;31.01;101480.19;10569367;28;20117;-70
2022/08/04 07:55:48;;;;;;;4.78;2.55;;;;;;;34.21;30.50;101476.69;10598110;28;20036;-70
2022/08/04 08:00:50;;;;;;;5.80;1.95;;;;;;;33.97;30.97;101474.91;10578969;28;20055;-70
2022/08/04 08:05:53;;;;;;;4.90;1.90;;;;;;;33.91;31.09;101477.41;10593850;28;20039;-71
2022/08/04 08:10:55;;;;;;;3.60;1.83;;;;;;;34.15;30.41;101478.38;10607350;28;20028;-70
2022/08/04 08:15:58;;;;;;;3.30;1.65;;;;;;;34.28;30.73;101472.97;10592485;28;20036;-72
2022/08/04 08:21:01;;;;;;;2.53;1.70;;;;;;;33.98;30.45;101479.38;10600278;28;20044;-71
2022/08/04 08:26:05;;;;;;;3.15;1.50;;;;;;;33.69;30.39;101462.56;10611482;28;20047;-71
2022/08/04 08:31:07;;;;;;;3.22;1.90;;;;;;;33.42;31.06;101461.56;10612710;28;20055;-71
2022/08/04 08:36:17;;;;;;;2.47;1.85;;;;;;;33.48;31.45;101460.69;10615317;28;20043;-71
2022/08/04 08:41:49;;;;;;;2.72;2.05;;;;;;;33.25;31.25;101458.41;10593051;28;20039;-71
2022/08/04 08:47:19;;;;;;;1.60;1.50;;;;;;;33.02;31.53;101454.50;10592214;27;20058;-71
2022/08/04 08:52:27;;;;;;;2.45;1.63;;;;;;;32.92;32.06;101453.34;10575466;28;20035;-72
2022/08/04 08:57:51;;;;;;;1.60;1.48;;;;;;;32.63;32.34;101444.94;10610788;28;20043;-71
2022/08/04 09:03:01;;;;;;;1.90;1.70;;;;;;;32.62;32.18;101448.97;10574368;28;20421;-72
2022/08/04 09:08:14;;;;;;;1.70;1.60;;;;;;;32.62;31.81;101448.19;10595910;28;20047;-71
2022/08/04 09:13:23;;;;;;;2.00;1.63;;;;;;;32.60;31.63;101445.75;10550247;28;20044;-73
2022/08/04 09:18:46;;;;;;;3.13;1.95;;;;;;;32.36;32.03;101438.16;10577059;28;20043;-72
2022/08/04 09:24:08;;;;;;;3.88;1.70;;;;;;;32.38;31.71;101432.88;10612080;28;20058;-72
2022/08/04 09:29:26;;;;;;;2.40;1.75;;;;;;;32.01;31.84;101437.00;10593749;28;20406;-72
2022/08/04 09:34:43;;;;;;;4.20;1.80;;;;;;;31.68;33.36;101437.44;10587891;28;20505;-72
2022/08/04 09:40:09;;;;;;;2.85;1.40;;;;;;;31.00;33.88;101436.56;10577269;28;20044;-71
2022/08/04 09:45:23;;;;;;;1.73;1.63;;;;;;;30.34;34.85;101435.91;10574438;28;20048;-73
2022/08/04 09:50:36;;;;;;;3.22;1.70;;;;;;;29.79;35.10;101441.63;10576749;28;20433;-74
2022/08/04 09:55:45;;;;;;;2.00;1.77;;;;;;;29.28;36.58;101448.03;10586146;28;20043;-73
2022/08/04 10:00:51;;;;;;;2.17;1.45;;;;;;;28.81;36.79;101441.91;10604404;27;20493;-73
2022/08/04 10:06:15;;;;;;;1.90;1.70;;;;;;;28.53;37.67;101438.72;10601230;28;20066;-74
2022/08/04 10:11:29;;;;;;;1.65;1.50;;;;;;;28.35;37.86;101441.31;10592931;28;20032;-73
2022/08/04 10:16:50;;;;;;;4.32;1.98;;;;;;;28.12;38.45;101444.22;10564837;28;20052;-73
2022/08/04 10:22:14;;;;;;;2.42;1.60;;;;;;;28.06;38.36;101437.25;10606805;28;20040;-73
2022/08/04 10:27:33;;;;;;;2.03;1.42;;;;;;;28.01;38.54;101431.13;10575292;28;20047;-74
2022/08/04 10:32:52;;;;;;;2.05;1.60;;;;;;;28.07;38.89;101435.25;10562959;28;20149;-74
2022/08/04 10:38:12;;;;;;;1.65;1.45;;;;;;;27.89;38.28;101429.34;10585967;28;20047;-75
2022/08/04 10:43:34;;;;;;;1.58;1.45;;;;;;;27.78;38.33;101436.84;10568991;28;20497;-74
2022/08/04 10:48:36;;;;;;;2.75;1.42;;;;;;;27.77;38.23;101438.00;10583260;28;20117;-73
2022/08/04 10:53:40;;;;;;;1.70;1.60;;;;;;;27.75;39.32;101444.03;10592677;28;20079;-73
2022/08/04 10:58:49;;;;;;;1.60;1.50;;;;;;;27.71;38.41;101443.19;10583661;28;20039;-73
2022/08/04 11:04:03;;;;;;;1.35;1.25;;;;;;;27.71;38.99;101440.34;10577314;28;20048;-73
2022/08/04 11:09:06;;;;;;;1.58;1.48;;;;;;;27.62;39.54;101437.78;10605095;28;20114;-72
2022/08/04 11:14:17;;;;;;;1.83;1.40;;;;;;;27.47;39.25;101437.94;10592892;28;20398;-72
2022/08/04 11:19:39;;;;;;;1.70;1.60;;;;;;;27.48;40.08;101431.91;10594163;28;20047;-72
2022/08/04 11:24:51;;;;;;;2.55;1.45;;;;;;;27.48;40.48;101426.25;10570205;28;20074;-72
2022/08/04 11:29:59;;;;;;;2.00;1.70;;;;;;;27.54;39.87;101429.56;10593252;28;20036;-72
2022/08/04 11:35:06;;;;;;;4.35;1.70;;;;;;;27.49;40.61;101427.09;10611358;28;20060;-72
2022/08/04 11:40:17;;;;;;;2.07;1.80;;;;;;;27.45;40.08;101423.41;10593358;28;20501;-72
2022/08/04 11:45:27;;;;;;;2.10;1.77;;;;;;;27.49;40.71;101427.09;10572837;28;20492;-72
2022/08/04 11:50:43;;;;;;;3.47;1.83;;;;;;;27.53;41.08;101416.66;10591984;28;20085;-72
2022/08/04 11:55:49;;;;;;;1.75;1.65;;;;;;;27.54;41.02;101426.75;10592701;28;20047;-72
2022/08/04 12:01:05;;;;;;;1.95;1.85;;;;;;;27.51;40.71;101414.22;10591997;28;20517;-72
2022/08/04 12:06:36;;;;;;;2.55;1.73;;;;;;;27.50;40.13;101409.78;10593344;28;20031;-72
2022/08/04 12:11:48;;;;;;;1.75;1.65;;;;;;;27.52;41.10;101404.56;10592118;28;20505;-72
2022/08/04 12:16:58;;;;;;;2.03;1.70;;;;;;;27.43;40.91;101400.41;10593379;28;20052;-72
2022/08/04 12:22:03;;;;;;;1.92;1.83;;;;;;;27.37;41.07;101407.53;10610425;28;20055;-72
2022/08/04 12:27:17;;;;;;;1.63;1.52;;;;;;;27.25;40.86;101400.13;10597943;28;20048;-72
2022/08/04 12:32:31;;;;;;;2.13;1.70;;;;;;;27.18;41.44;101399.97;10579049;28;20047;-73
2022/08/04 12:38:01;;;;;;;2.45;1.73;;;;;;;27.14;41.35;101399.09;10596932;28;20500;-72
2022/08/04 12:43:14;;;;;;;1.98;1.67;;;;;;;27.23;41.03;101399.66;10603770;28;20109;-75
2022/08/04 12:48:17;;;;;;;2.75;2.00;;;;;;;27.28;41.09;101396.53;10593444;28;20044;-72
2022/08/04 12:53:22;;;;;;;1.65;1.55;;;;;;;27.31;41.25;101396.59;10591263;28;20513;-73
2022/08/04 12:58:26;;;;;;;2.08;1.55;;;;;;;27.31;40.77;101390.94;10579657;28;20070;-73
2022/08/04 13:03:38;;;;;;;2.25;1.77;;;;;;;27.38;40.50;101386.63;10562135;28;20039;-73
2022/08/04 13:08:42;;;;;;;2.05;1.85;;;;;;;27.34;39.99;101392.19;10563336;28;20043;-73
2022/08/04 13:13:45;;;;;;;4.03;1.77;;;;;;;27.36;40.78;101389.81;10551440;28;20053;-73
2022/08/04 13:18:48;;;;;;;2.75;1.55;;;;;;;27.37;40.00;101379.34;10547572;28;20632;-73
2022/08/04 13:24:12;;;;;;;2.95;1.60;;;;;;;27.36;39.05;101383.38;10571331;28;20521;-73
2022/08/04 13:29:16;;;;;;;1.92;1.70;;;;;;;27.34;37.80;101369.66;10569839;28;20598;-73
2022/08/04 13:34:18;;;;;;;1.88;1.67;;;;;;;27.31;38.36;101364.78;10550816;28;20040;-71
2022/08/04 13:39:21;;;;;;;4.40;1.38;;;;;;;27.28;38.16;101366.34;10550966;28;20430;-72
2022/08/04 13:44:30;;;;;;;2.00;1.77;;;;;;;27.27;39.28;101353.44;10559967;28;20048;-72
2022/08/04 13:49:32;;;;;;;1.90;1.30;;;;;;;27.23;39.22;101361.00;10557579;28;20056;-72
2022/08/04 13:54:39;;;;;;;1.98;1.60;;;;;;;27.11;38.16;101352.78;10555713;28;20044;-74
2022/08/04 13:59:44;;;;;;;2.57;2.10;;;;;;;27.04;38.93;101358.28;10556034;28;20039;-72
2022/08/04 14:04:50;;;;;;;2.33;2.13;;;;;;;26.98;37.43;101356.94;10546134;28;21334;-73
2022/08/04 14:09:53;;;;;;;4.57;2.25;;;;;;;26.89;37.42;101356.34;10554176;28;20079;-72
2022/08/04 14:14:55;;;;;;;2.00;1.80;;;;;;;26.89;37.93;101348.72;10585245;28;20048;-73
2022/08/04 14:19:59;;;;;;;5.22;1.50;;;;;;;26.88;36.98;101346.28;10598737;28;20047;-74
2022/08/04 14:25:11;;;;;;;2.38;1.58;;;;;;;26.85;35.90;101347.03;10593007;28;20031;-73
2022/08/04 14:30:23;;;;;;;2.15;1.35;;;;;;;26.86;34.91;101351.47;10594255;28;20055;-74
2022/08/04 14:35:26;;;;;;;2.35;1.20;;;;;;;26.81;34.15;101346.16;10585690;28;20032;-74
2022/08/04 14:40:32;;;;;;;1.42;1.23;;;;;;;26.80;33.34;101350.19;10589252;28;20445;-71
2022/08/04 14:45:41;;;;;;;1.40;1.23;;;;;;;26.76;33.47;101341.66;10583021;28;20039;-72
2022/08/04 14:50:45;;;;;;;1.67;1.27;;;;;;;26.71;33.25;101347.59;10603724;28;20047;-72
2022/08/04 14:55:49;;;;;;;2.42;1.20;;;;;;;26.69;33.40;101347.16;10599407;28;20520;-72
2022/08/04 15:00:57;;;;;;;1.33;1.08;;;;;;;26.67;33.04;101360.78;10594564;28;20043;-72
2022/08/04 15:06:00;;;;;;;1.65;1.17;;;;;;;26.66;33.62;101354.34;10594576;28;20048;-72
2022/08/04 15:11:02;;;;;;;3.22;1.20;;;;;;;26.64;33.27;101345.47;10593181;28;20054;-72
2022/08/04 15:16:04;;;;;;;1.95;1.50;;;;;;;26.60;33.25;101347.41;10612328;28;20043;-72
2022/08/04 15:21:07;;;;;;;2.17;1.13;;;;;;;26.54;32.76;101350.88;10593587;28;20055;-72
2022/08/04 15:26:16;;;;;;;1.05;0.95;;;;;;;26.50;34.14;101348.00;10593904;28;20059;-72
2022/08/04 15:31:19;;;;;;;1.40;1.10;;;;;;;26.45;33.18;101345.50;10612379;28;20048;-72
2022/08/04 15:36:34;;;;;;;1.65;1.25;;;;;;;26.40;34.08;101345.81;10593940;28;20405;-72
2022/08/04 15:41:44;;;;;;;2.08;1.27;;;;;;;26.35;33.48;101346.09;10609262;28;20040;-72
2022/08/04 15:46:46;;;;;;;1.25;0.90;;;;;;;26.31;33.31;101345.19;10609967;28;20417;-72
2022/08/04 15:52:01;;;;;;;1.30;1.20;;;;;;;26.24;34.59;101345.03;10608692;28;20505;-72
2022/08/04 15:57:05;;;;;;;1.60;1.30;;;;;;;26.18;33.71;101346.50;10614200;28;20051;-72
2022/08/04 16:02:35;;;;;;;1.88;1.10;;;;;;;26.13;33.87;101351.25;10609391;28;20052;-72
2022/08/04 16:08:13;;;;;;;1.60;1.20;;;;;;;26.07;33.24;101352.75;10596595;28;20035;-72
2022/08/04 16:13:18;;;;;;;2.67;1.35;;;;;;;26.03;33.89;101346.25;10465265;28;20067;-72
2022/08/04 16:18:30;;;;;;;1.40;1.05;;;;;;;26.00;34.15;101346.13;10609440;28;20048;-72
2022/08/04 16:23:52;;;;;;;1.50;1.10;;;;;;;25.98;33.30;101349.31;10590840;28;20429;-71
2022/08/04 16:28:54;;;;;;;1.58;1.13;;;;;;;25.93;33.38;101349.63;10541460;28;20047;-71
2022/08/04 16:33:59;;;;;;;1.70;1.10;;;;;;;25.89;33.84;101345.91;10578851;28;20038;-71
2022/08/04 16:39:03;;;;;;;1.77;1.00;;;;;;;25.84;33.68;101343.38;10613148;28;20524;-72
2022/08/04 16:44:31;;;;;;;1.10;1.00;;;;;;;25.81;32.98;101349.75;10611721;28;20039;-72
2022/08/04 16:49:33;;;;;;;2.92;1.10;;;;;;;25.78;33.74;101339.25;10602530;28;20039;-72
2022/08/04 16:54:36;;;;;;;1.17;1.08;;;;;;;25.72;33.81;101347.16;10575935;27;20504;-72
2022/08/04 16:59:38;;;;;;;2.15;1.20;;;;;;;25.67;34.07;101343.75;10588567;28;20043;-72
2022/08/04 17:04:40;;;;;;;1.67;1.23;;;;;;;25.63;34.87;101349.31;10594651;28;20044;-72
2022/08/04 17:09:50;;;;;;;1.77;1.33;;;;;;;25.61;34.84;101339.63;10555483;28;20418;-72
2022/08/04 17:14:52;;;;;;;2.47;1.30;;;;;;;25.57;36.09;101352.78;10575375;28;20051;-72
2022/08/04 17:19:54;;;;;;;2.80;1.70;;;;;;;25.51;35.55;101350.25;10595131;28;20469;-72
2022/08/04 17:24:58;;;;;;;1.92;1.60;;;;;;;25.49;36.15;101354.59;10590885;28;20047;-72
2022/08/04 17:30:00;;;;;;;2.35;1.48;;;;;;;25.44;35.94;101358.50;10596023;28;20056;-72
2022/08/04 17:35:02;;;;;;;2.60;1.90;;;;;;;25.39;37.28;101353.19;10587850;28;20043;-72
2022/08/04 17:40:07;;;;;;;3.13;1.80;;;;;;;25.34;36.82;101364.69;10567049;28;20048;-73
2022/08/04 17:45:15;;;;;;;3.47;1.40;;;;;;;25.28;37.24;101368.13;10589549;28;20055;-72
2022/08/04 17:50:33;;;;;;;2.10;1.70;;;;;;;25.19;37.04;101357.91;10570940;28;20032;-72
2022/08/04 17:55:43;;;;;;;4.15;1.60;;;;;;;25.14;36.87;101365.78;10606249;28;20079;-72
2022/08/04 18:00:47;;;;;;;2.05;1.15;;;;;;;25.06;37.28;101363.97;10593131;28;20712;-72
2022/08/04 18:05:53;;;;;;;2.35;1.45;;;;;;;24.95;36.98;101358.03;10613085;28;20062;-72
2022/08/04 18:10:55;;;;;;;6.07;1.42;;;;;;;24.84;37.87;101362.56;10573625;28;20035;-71
2022/08/04 18:16:02;;;;;;;3.30;1.60;;;;;;;24.75;37.23;101367.53;10583320;28;20493;-71
2022/08/04 18:21:04;;;;;;;;;;;;;;;24.66;37.45;101364.91;10553318;28;20043;-71
2022/08/04 18:26:06;;;;;;;1.73;1.30;;;;;;;24.54;38.67;101370.56;10571779;28;19943;-71
2022/08/04 18:31:09;;;;;;;3.20;1.38;;;;;;;24.48;38.33;101367.22;10598172;28;20039;-71
2022/08/04 18:36:12;;;;;;;6.53;1.55;;;;;;;24.42;39.04;101367.81;10578126;28;20044;-70
2022/08/04 18:41:14;;;;;;;1.50;1.20;;;;;;;24.39;38.70;101362.94;10552097;28;20047;-70
2022/08/04 18:46:17;;;;;;;2.83;1.60;;;;;;;24.32;38.04;101378.38;10575446;28;20036;-72
2022/08/04 18:51:19;;;;;;;1.40;1.30;;;;;;;24.28;38.99;101382.22;10595098;28;20044;-71
2022/08/04 18:56:22;;;;;;;2.75;1.60;;;;;;;24.20;38.93;101371.97;10566015;28;20642;-71
2022/08/04 19:01:24;;;;;;;1.92;1.42;;;;;;;24.14;38.77;101374.22;10571498;28;20138;-71
2022/08/04 19:06:27;;;;;;;1.75;1.40;;;;;;;24.09;40.19;101371.66;10602022;28;20051;-71
2022/08/04 19:11:34;;;;;;;6.53;1.80;;;;;;;24.05;40.17;101376.34;10594323;28;20043;-71
2022/08/04 19:16:36;;;;;;;2.45;1.67;;;;;;;24.00;40.20;101376.59;10576945;28;20036;-71
2022/08/04 19:21:39;;;;;;;2.85;1.33;;;;;;;23.96;41.01;101365.28;10570444;28;20440;-71
2022/08/04 19:26:42;;;;;;;5.50;1.85;;;;;;;23.92;41.06;101374.72;10573257;28;20481;-71
2022/08/04 19:31:45;;;;;;;3.58;1.60;;;;;;;23.86;41.45;101373.34;10575082;28;20044;-72
2022/08/04 19:36:47;;;;;;;2.28;1.50;;;;;;;23.83;41.81;101368.44;10577672;28;20054;-71
2022/08/04 19:41:51;;;;;;;2.38;1.70;;;;;;;23.79;41.70;101367.53;10568057;28;20139;-74
2022/08/04 19:46:54;;;;;;;4.22;1.80;;;;;;;23.76;42.17;101375.44;10561131;28;20048;-72
2022/08/04 19:51:56;;;;;;;4.47;1.60;;;;;;;23.73;41.57;101370.56;10601660;28;20059;-72
2022/08/04 19:56:58;;;;;;;3.78;1.70;;;;;;;23.73;42.18;101378.16;10581900;28;20055;-73
2022/08/04 20:02:01;;;;;;;7.15;1.85;;;;;;;23.71;42.31;101384.09;10588293;28;20040;-73
2022/08/04 20:07:03;;;;;;;3.85;1.73;;;;;;;23.67;42.60;101380.38;10585029;28;20074;-73
2022/08/04 20:12:08;;;;;;;4.20;1.92;;;;;;;23.67;42.75;101379.56;10587739;28;20044;-73
2022/08/04 20:17:10;;;;;;;6.25;2.10;;;;;;;23.62;42.50;101380.63;10579891;28;20522;-73
2022/08/04 20:22:14;;;;;;;3.08;1.77;;;;;;;23.58;41.89;101381.66;10550411;28;20039;-73
2022/08/04 20:27:16;;;;;;;3.08;2.08;;;;;;;23.56;42.66;101386.78;10591293;28;20043;-72
2022/08/04 20:32:21;;;;;;;5.07;2.00;;;;;;;23.52;43.10;101392.28;10575925;28;20513;-71
2022/08/04 20:37:25;;;;;;;3.72;2.00;;;;;;;23.47;43.11;101384.09;10587296;28;20039;-72
2022/08/04 20:42:30;;;;;;;4.75;2.25;;;;;;;23.41;43.51;101388.28;10591404;28;20051;-71
2022/08/04 20:47:32;;;;;;;4.30;2.17;;;;;;;23.36;43.15;101389.34;10610561;28;20039;-71
2022/08/04 20:52:36;;;;;;;2.85;1.70;;;;;;;23.34;43.75;101396.47;10614752;28;20039;-71
2022/08/04 20:57:38;;;;;;;5.25;2.00;;;;;;;23.30;43.46;101393.56;10586628;28;20055;-72
2022/08/04 21:02:40;;;;;;;4.70;2.35;;;;;;;23.30;43.81;101401.97;10614685;28;20043;-72
2022/08/04 21:07:42;;;;;;;6.13;2.47;;;;;;;23.27;44.09;101402.66;10589747;28;20044;-72
2022/08/04 21:12:45;;;;;;;4.07;2.10;;;;;;;23.22;43.33;101399.25;10576593;28;20504;-71
2022/08/04 21:17:47;;;;;;;4.07;2.25;;;;;;;23.20;44.49;101402.41;10610228;28;20036;-71
2022/08/04 21:22:52;;;;;;;3.90;1.88;;;;;;;23.19;43.49;101405.56;10600198;28;20039;-70
2022/08/04 21:27:54;;;;;;;4.15;2.13;;;;;;;23.19;44.31;101411.97;10612021;28;20126;-69
2022/08/04 21:32:56;;;;;;;5.78;2.65;;;;;;;23.18;44.67;101404.75;10608305;28;20662;-72
2022/08/04 21:37:58;;;;;;;6.68;2.38;;;;;;;23.10;44.84;101409.28;10591708;28;20031;-71
2022/08/04 21:43:00;;;;;;;6.65;2.78;;;;;;;23.05;44.80;101417.06;10598032;28;20043;-72
2022/08/04 21:48:02;;;;;;;2.05;1.80;;;;;;;22.96;44.95;101414.38;10615373;28;20039;-71
2022/08/04 21:53:05;;;;;;;4.75;2.38;;;;;;;22.93;45.23;101420.69;10608635;28;20485;-71
2022/08/04 21:58:08;;;;;;;8.25;3.00;;;;;;;22.89;44.57;101424.50;10592484;28;20056;-71
2022/08/04 22:03:10;;;;;;;5.10;2.10;;;;;;;22.83;45.49;101435.09;10584151;28;20413;-72
2022/08/04 22:08:12;;;;;;;9.43;2.22;;;;;;;22.79;46.10;101428.53;10602730;28;20044;-71
2022/08/04 22:13:14;;;;;;;6.00;2.22;;;;;;;22.78;45.11;101421.31;10613618;28;20055;-71
2022/08/04 22:18:16;;;;;;;3.97;1.92;;;;;;;22.74;45.48;101428.75;10607108;28;20043;-71
2022/08/04 22:23:18;;;;;;;5.03;2.75;;;;;;;22.69;45.46;101420.56;10595996;28;20048;-71
2022/08/04 22:28:20;;;;;;;3.97;2.10;;;;;;;22.66;46.10;101430.47;10607533;28;20047;-72
2022/08/04 22:33:23;;;;;;;4.30;2.08;;;;;;;22.64;46.01;101424.41;10609313;28;20493;-71
2022/08/04 22:38:25;;;;;;;3.58;2.30;;;;;;;22.59;45.91;101421.00;10613172;28;20087;-72
2022/08/04 22:43:27;;;;;;;3.35;2.33;;;;;;;22.56;46.54;101425.28;10595607;28;20055;-72
2022/08/04 22:48:31;;;;;;;3.40;2.03;;;;;;;22.53;46.37;101418.41;10570495;28;20060;-71
2022/08/04 22:53:34;;;;;;;2.92;1.77;;;;;;;22.47;46.52;101424.56;10606523;28;20054;-72
2022/08/04 22:58:38;;;;;;;3.72;1.90;;;;;;;22.40;46.87;101424.31;10593747;28;20114;-72
2022/08/04 23:03:41;;;;;;;5.57;2.10;;;;;;;22.38;47.24;101424.63;10593793;28;20044;-71
2022/08/04 23:08:43;;;;;;;2.92;1.98;;;;;;;22.30;47.20;101424.69;10611262;28;20048;-72
2022/08/04 23:13:45;;;;;;;4.35;1.90;;;;;;;22.30;46.89;101430.28;10609996;28;20055;-72
2022/08/04 23:18:47;;;;;;;4.85;1.70;;;;;;;22.20;47.67;101437.91;10609781;28;20062;-72
2022/08/04 23:23:50;;;;;;;5.22;2.15;;;;;;;22.19;47.52;101441.06;10576178;28;20043;-72
2022/08/04 23:28:52;;;;;;;5.30;2.08;;;;;;;22.15;47.69;101442.91;10610737;28;20055;-72
2022/08/04 23:33:55;;;;;;;5.05;1.92;;;;;;;22.10;48.13;101438.34;10608825;28;20081;-72
2022/08/04 23:39:01;;;;;;;1.90;1.70;;;;;;;22.08;48.15;101439.84;10576174;28;20044;-72
2022/08/04 23:44:03;;;;;;;3.53;1.65;;;;;;;22.02;48.90;101446.75;10575156;28;20047;-72